Time;durP1;ratioP1;P1;durP2;ratioP2;P2;SDS_P1;SDS_P2;PMS_P1;PMS_P2;Temp;Humidity;BMP_temperature;BMP_pressure;BME280_temperature;BME280_humidity;BME280_pressure;Samples;Min_cycle;Max_cycle;Signal;HPM_P1;HPM_P2
2023/08/21 00:01:06;;;;;;;4.75;1.15;;;17.10;99.90;;;16.56;100.00;101960.13;4150844;28;20089;-71
2023/08/21 00:03:07;;;;;;;4.25;0.80;;;17.10;99.90;;;16.50;100.00;101943.94;4152357;28;20026;-71
2023/08/21 00:05:09;;;;;;;4.47;0.90;;;17.00;99.90;;;16.50;100.00;101946.59;4152552;28;20030;-71
2023/08/21 00:07:11;;;;;;;2.75;0.75;;;17.00;99.90;;;16.46;100.00;101954.09;4152134;28;20030;-71
2023/08/21 00:09:12;;;;;;;5.28;1.77;;;17.00;99.90;;;16.42;100.00;101951.94;4140362;28;20080;-71
2023/08/21 00:11:13;;;;;;;2.92;0.90;;;16.90;99.90;;;16.40;100.00;101960.06;4150683;28;20441;-71
2023/08/21 00:13:13;;;;;;;3.45;0.90;;;16.90;99.90;;;16.30;100.00;101953.25;4152309;28;20033;-71
2023/08/21 00:15:14;;;;;;;5.65;1.17;;;16.80;99.90;;;16.29;100.00;101957.72;4150791;28;20449;-71
2023/08/21 00:17:15;;;;;;;5.97;0.80;;;16.80;99.90;;;16.09;100.00;101926.25;4140019;28;20027;-71
2023/08/21 00:19:16;;;;;;;3.72;1.23;;;16.80;99.90;;;16.24;100.00;101957.41;4152129;28;20037;-71
2023/08/21 00:21:17;;;;;;;6.57;2.10;;;16.70;99.90;;;16.20;100.00;101958.72;4152414;28;20025;-71
2023/08/21 00:23:18;;;;;;;3.55;1.08;;;16.70;99.90;;;16.01;100.00;101933.19;4152200;28;20030;-71
2023/08/21 00:25:21;;;;;;;4.22;1.17;;;16.70;99.90;;;16.11;100.00;101959.69;4152079;28;20026;-71
2023/08/21 00:27:21;;;;;;;5.30;1.20;;;16.60;99.90;;;16.10;100.00;101952.69;4150982;28;20038;-71
2023/08/21 00:29:22;;;;;;;3.83;0.90;;;16.60;99.90;;;16.08;100.00;101953.84;4152226;28;20041;-71
2023/08/21 00:31:23;;;;;;;3.10;1.38;;;16.60;99.90;;;16.03;100.00;101949.03;4152162;28;20029;-71
2023/08/21 00:33:24;;;;;;;2.25;1.00;;;16.60;99.90;;;16.05;100.00;101955.00;4150934;28;20469;-71
2023/08/21 00:35:25;;;;;;;2.50;0.90;;;16.50;99.90;;;16.02;100.00;101955.31;4149707;28;20448;-71
2023/08/21 00:37:25;;;;;;;4.15;1.15;;;16.50;99.90;;;15.99;100.00;101953.81;4152140;28;20046;-71
2023/08/21 00:39:27;;;;;;;6.93;1.65;;;16.50;99.90;;;15.97;100.00;101955.81;4152261;28;20030;-71
2023/08/21 00:41:27;;;;;;;3.80;0.77;;;16.50;99.90;;;15.79;100.00;101928.47;4152052;28;20030;-71
2023/08/21 00:43:28;;;;;;;2.50;1.15;;;16.40;99.90;;;15.91;100.00;101952.97;4140521;28;20034;-71
2023/08/21 00:45:29;;;;;;;2.75;1.13;;;16.40;99.90;;;15.84;100.00;101947.44;4151792;28;20033;-71
2023/08/21 00:47:30;;;;;;;4.93;1.20;;;16.40;99.90;;;15.83;100.00;101955.59;4150908;28;20096;-71
2023/08/21 00:49:32;;;;;;;3.35;0.82;;;16.30;99.90;;;15.78;100.00;101952.56;4151958;28;20026;-71
2023/08/21 00:51:33;;;;;;;3.63;0.70;;;16.30;99.90;;;15.73;100.00;101949.56;4151929;28;20037;-71
2023/08/21 00:53:34;;;;;;;4.80;0.93;;;16.20;99.90;;;15.69;100.00;101949.06;4151805;28;20030;-71
2023/08/21 00:55:36;;;;;;;6.10;1.00;;;16.20;99.90;;;15.69;100.00;101958.84;4150759;28;20131;-71
2023/08/21 00:57:38;;;;;;;4.55;0.90;;;16.20;99.90;;;15.67;100.00;101956.38;4167164;28;20021;-71
2023/08/21 00:59:39;;;;;;;4.57;1.27;;;16.20;99.90;;;15.69;100.00;101954.38;4166701;28;20505;-71
2023/08/21 01:01:41;;;;;;;6.25;1.23;;;16.20;99.90;;;15.67;100.00;101956.38;4151912;28;20461;-71
2023/08/21 01:03:42;;;;;;;3.60;0.90;;;16.20;99.90;;;15.65;100.00;101958.34;4151850;28;20026;-71
2023/08/21 01:05:43;;;;;;;5.13;0.88;;;16.10;99.90;;;15.57;100.00;101954.81;4151937;28;20504;-71
2023/08/21 01:08:03;;;;;;;4.13;1.13;;;16.10;99.90;;;15.62;100.00;101957.84;4153498;28;20060;-71
2023/08/21 01:10:19;;;;;;;3.78;1.02;;;16.10;99.90;;;15.57;100.00;101949.47;4168845;28;20030;-71
2023/08/21 01:12:29;;;;;;;6.60;1.50;;;16.10;99.90;;;15.59;100.00;101955.50;4153517;28;20029;-71
2023/08/21 01:15:06;;;;;;;2.65;0.95;;;16.10;99.90;;;15.57;100.00;101960.13;4154605;28;20068;-71
2023/08/21 01:17:12;;;;;;;6.97;1.50;;;16.10;99.90;;;15.48;100.00;101952.13;4153724;28;20026;-71
2023/08/21 01:19:35;;;;;;;2.72;1.17;;;16.00;99.90;;;15.49;100.00;101956.44;4153327;28;20026;-71
2023/08/21 01:21:36;;;;;;;4.97;1.00;;;16.00;99.90;;;15.46;100.00;101953.25;4154702;28;20529;-71
2023/08/21 01:23:38;;;;;;;6.53;1.40;;;16.00;99.90;;;15.41;100.00;101951.03;4153434;28;20037;-71
2023/08/21 01:25:39;;;;;;;5.07;0.98;;;15.90;99.90;;;15.44;100.00;101960.53;4154290;28;20029;-71
2023/08/21 01:27:49;;;;;;;4.40;1.42;;;15.90;99.90;;;15.44;100.00;101956.03;4154697;28;20029;-71
2023/08/21 01:29:50;;;;;;;3.47;0.80;;;15.90;99.90;;;15.42;100.00;101957.19;4152924;28;20104;-71
2023/08/21 01:32:05;;;;;;;6.07;1.88;;;15.90;99.90;;;15.41;100.00;101956.34;4154385;28;20030;-71
2023/08/21 01:34:11;;;;;;;3.75;1.10;;;15.90;99.90;;;15.41;100.00;101956.34;4153375;28;20021;-71
2023/08/21 01:36:12;;;;;;;9.20;1.40;;;15.90;99.90;;;15.36;100.00;101952.50;4150940;28;20054;-71
2023/08/21 01:38:14;;;;;;;4.00;1.20;;;15.90;99.90;;;15.38;100.00;101956.66;4153364;28;20030;-71
2023/08/21 01:40:24;;;;;;;3.55;1.10;;;15.90;99.90;;;15.37;100.00;101954.19;4152940;28;20034;-71
2023/08/21 01:42:25;;;;;;;7.47;1.73;;;15.90;99.90;;;15.30;100.00;101943.34;4169594;28;20026;-71
2023/08/21 01:44:26;;;;;;;4.00;1.25;;;15.90;99.90;;;15.36;100.00;101953.34;4152983;28;20036;-71
2023/08/21 01:46:27;;;;;;;4.88;1.38;;;15.90;99.90;;;15.32;100.00;101943.19;4154035;28;20397;-71
2023/08/21 01:48:28;;;;;;;5.57;1.10;;;15.90;99.90;;;15.20;100.00;101929.31;4153040;28;20034;-71
2023/08/21 01:50:29;;;;;;;5.90;1.40;;;15.80;99.90;;;15.33;100.00;101942.19;4154164;28;20402;-71
2023/08/21 01:52:30;;;;;;;4.35;1.48;;;15.80;99.90;;;15.30;100.00;101943.34;4154192;28;20416;-71
2023/08/21 01:54:30;;;;;;;2.25;1.13;;;15.80;99.90;;;15.34;100.00;101944.69;4154063;28;20030;-71
2023/08/21 01:56:31;;;;;;;4.07;1.02;;;15.80;99.90;;;15.32;100.00;101951.16;4154115;28;20494;-71
2023/08/21 01:58:33;;;;;;;7.05;1.27;;;15.80;99.90;;;15.32;100.00;101948.50;4154163;28;20061;-71
2023/08/21 02:00:34;;;;;;;4.50;1.20;;;15.80;99.90;;;15.26;100.00;101947.28;4151835;28;20476;-71
2023/08/21 02:02:34;;;;;;;5.38;1.77;;;15.80;99.90;;;15.29;100.00;101949.63;4152688;28;20521;-71
2023/08/21 02:04:35;;;;;;;4.40;0.90;;;15.80;99.90;;;15.28;100.00;101941.84;4149349;28;20042;-71
2023/08/21 02:06:36;;;;;;;4.97;1.30;;;15.90;99.90;;;15.26;100.00;101939.31;4144380;28;20022;-71
2023/08/21 02:08:37;;;;;;;5.25;1.13;;;15.80;99.90;;;15.31;100.00;101950.34;4152849;28;20034;-71
2023/08/21 02:10:46;;;;;;;6.60;1.95;;;15.80;99.90;;;15.32;100.00;101956.50;4154048;28;20560;-71
2023/08/21 02:12:48;;;;;;;3.83;1.23;;;15.80;99.90;;;15.31;100.00;101954.81;4153873;28;20041;-71
2023/08/21 02:14:49;;;;;;;4.80;1.40;;;15.80;99.90;;;15.27;100.00;101954.28;4168884;28;20021;-71
2023/08/21 02:16:50;;;;;;;9.10;1.48;;;15.80;99.90;;;15.28;100.00;101955.97;4153725;28;20092;-71
2023/08/21 02:18:51;;;;;;;4.68;1.08;;;15.80;99.90;;;15.32;100.00;101965.28;4150596;28;20026;-71
2023/08/21 02:20:52;;;;;;;3.53;1.10;;;15.80;99.90;;;15.34;100.00;101965.13;4153768;28;20036;-72
2023/08/21 02:22:53;;;;;;;4.55;1.33;;;15.80;99.90;;;15.32;100.00;101953.84;4152530;28;20033;-71
2023/08/21 02:24:54;;;;;;;4.18;1.30;;;15.90;99.90;;;15.32;100.00;101962.63;4153588;28;20029;-71
2023/08/21 02:26:55;;;;;;;6.18;1.40;;;15.90;99.90;;;15.31;100.00;101957.47;4153348;28;20033;-71
2023/08/21 02:28:57;;;;;;;6.25;1.20;;;15.80;99.90;;;15.30;100.00;101964.59;4153614;28;20575;-71
2023/08/21 02:30:58;;;;;;;4.80;1.83;;;15.80;99.90;;;15.32;100.00;101957.28;4153186;28;20026;-71
2023/08/21 02:32:59;;;;;;;6.10;1.70;;;15.80;99.90;;;15.30;100.00;101955.78;4136187;28;20066;-71
2023/08/21 02:35:00;;;;;;;6.93;1.40;;;15.80;99.90;;;15.30;100.00;101955.78;4149828;28;20100;-71
2023/08/21 02:37:00;;;;;;;7.55;1.70;;;15.80;99.90;;;15.27;100.00;101951.63;4138843;28;20065;-71
2023/08/21 02:39:03;;;;;;;7.35;1.63;;;15.80;99.90;;;15.23;100.00;101949.44;4151619;28;20444;-71
2023/08/21 02:41:04;;;;;;;5.70;1.25;;;15.80;99.90;;;15.23;100.00;101952.91;4153749;28;20061;-71
2023/08/21 02:43:05;;;;;;;6.85;1.35;;;15.70;99.90;;;15.16;100.00;101940.44;4153303;28;20030;-71
2023/08/21 02:45:10;;;;;;;5.20;1.10;;;15.70;99.90;;;15.16;100.00;101941.25;4152926;28;20040;-72
2023/08/21 02:47:10;;;;;;;5.85;1.33;;;15.70;99.90;;;15.19;100.00;101951.59;4151041;28;20402;-72
2023/08/21 02:49:11;;;;;;;5.85;1.48;;;15.70;99.90;;;15.14;100.00;101942.41;4147116;28;20026;-71
2023/08/21 02:51:12;;;;;;;10.45;1.75;;;15.70;99.90;;;15.17;100.00;101958.88;4153121;28;20026;-71
2023/08/21 02:53:13;;;;;;;3.88;1.23;;;15.70;99.90;;;15.11;100.00;101948.88;4153262;28;20022;-71
2023/08/21 02:55:15;;;;;;;4.70;1.27;;;15.70;99.90;;;15.14;100.00;101953.84;4151750;28;20033;-71
2023/08/21 02:57:16;;;;;;;6.20;1.83;;;15.70;99.90;;;15.09;100.00;101950.84;4153222;28;20497;-71
2023/08/21 02:59:17;;;;;;;3.55;1.10;;;15.60;99.90;;;15.05;100.00;101944.19;4151772;28;20034;-71
2023/08/21 03:01:18;;;;;;;4.65;1.30;;;15.60;99.90;;;15.01;100.00;101937.50;4148613;28;20035;-71
2023/08/21 03:03:19;;;;;;;4.47;1.50;;;15.60;99.90;;;15.00;100.00;101941.16;4135681;28;20026;-71
2023/08/21 03:05:20;;;;;;;4.75;1.85;;;15.60;99.90;;;15.04;100.00;101945.16;4135660;28;20518;-71
2023/08/21 03:07:21;;;;;;;4.30;1.73;;;15.60;99.90;;;14.96;100.00;101935.31;4149757;28;20018;-71
2023/08/21 03:09:22;;;;;;;3.92;1.45;;;15.50;99.90;;;14.93;100.00;101935.63;4151635;28;20048;-71
2023/08/21 03:11:23;;;;;;;7.82;1.65;;;15.50;99.90;;;14.96;100.00;101951.25;4151852;28;20025;-71
2023/08/21 03:13:24;;;;;;;3.13;1.08;;;15.50;99.90;;;14.91;100.00;101955.34;4168163;28;20072;-71
2023/08/21 03:15:25;;;;;;;6.07;2.35;;;15.50;99.90;;;14.91;100.00;101960.66;4151383;28;20049;-71
2023/08/21 03:17:26;;;;;;;3.92;1.30;;;15.40;99.90;;;14.87;100.00;101951.38;4151670;28;20049;-71
2023/08/21 03:19:27;;;;;;;4.40;1.48;;;15.40;99.90;;;14.86;100.00;101961.16;4151719;28;20030;-71
2023/08/21 03:21:28;;;;;;;3.10;1.65;;;15.40;99.90;;;14.85;100.00;101959.47;4152821;28;20030;-71
2023/08/21 03:23:29;;;;;;;4.20;1.23;;;15.40;99.90;;;14.83;100.00;101961.47;4152729;28;20025;-71
2023/08/21 03:25:30;;;;;;;7.93;1.95;;;15.30;99.90;;;14.79;100.00;101953.94;4151587;28;20025;-71
2023/08/21 03:27:31;;;;;;;6.50;1.55;;;15.30;99.90;;;14.77;100.00;101961.22;4148760;28;20038;-71
2023/08/21 03:29:32;;;;;;;6.07;1.50;;;15.30;99.90;;;14.80;100.00;101958.28;4143712;28;20022;-71
2023/08/21 03:31:33;;;;;;;5.22;1.92;;;15.30;99.90;;;14.73;100.00;101952.72;4146844;28;20030;-71
2023/08/21 03:33:34;;;;;;;3.80;1.88;;;15.30;99.90;;;14.77;100.00;101961.22;4152735;28;20057;-71
2023/08/21 03:35:34;;;;;;;3.55;1.50;;;15.30;99.90;;;14.66;100.00;101945.53;4150732;28;20045;-71
2023/08/21 03:37:35;;;;;;;5.28;1.70;;;15.30;99.90;;;14.71;100.00;101956.53;4167362;28;20050;-71
2023/08/21 03:39:37;;;;;;;5.22;1.67;;;15.30;99.90;;;14.76;100.00;101972.84;4151344;28;20521;-71
2023/08/21 03:41:38;;;;;;;8.88;2.30;;;15.30;99.90;;;14.74;100.00;101973.00;4151139;28;20029;-71
2023/08/21 03:43:38;;;;;;;4.45;1.52;;;15.30;99.90;;;14.74;100.00;101972.16;4164387;28;20400;-71
2023/08/21 03:45:39;;;;;;;7.00;2.50;;;15.30;99.90;;;14.69;100.00;101963.84;4143476;28;20034;-71
2023/08/21 03:47:40;;;;;;;6.95;1.70;;;15.30;99.90;;;14.71;100.00;101965.34;4162153;28;20095;-71
2023/08/21 03:49:41;;;;;;;5.05;1.98;;;15.20;99.90;;;14.66;100.00;101948.19;4148738;28;20087;-71
2023/08/21 03:51:42;;;;;;;6.20;1.77;;;15.20;99.90;;;14.71;100.00;101956.53;4147171;28;20022;-71
2023/08/21 03:53:43;;;;;;;4.78;1.55;;;15.20;99.90;;;14.72;100.00;101964.38;4143203;28;20433;-71
2023/08/21 03:55:44;;;;;;;5.40;2.10;;;15.30;99.90;;;14.71;100.00;101961.84;4151116;28;20018;-71
2023/08/21 03:57:44;;;;;;;4.72;1.60;;;15.20;99.90;;;14.65;100.00;101957.97;4147094;28;20026;-71
2023/08/21 03:59:45;;;;;;;9.73;2.03;;;15.20;99.90;;;14.65;100.00;101957.97;4151046;28;20022;-71
2023/08/21 04:01:46;;;;;;;7.60;2.15;;;15.20;99.90;;;14.66;100.00;101959.66;4167211;28;20127;-71
2023/08/21 04:03:47;;;;;;;5.97;1.80;;;15.20;99.90;;;14.65;100.00;101965.94;4152395;28;20018;-71
2023/08/21 04:05:48;;;;;;;4.20;1.77;;;15.20;99.90;;;14.61;100.00;101969.88;4152085;28;20022;-71
2023/08/21 04:07:49;;;;;;;7.28;1.88;;;15.10;99.90;;;14.62;100.00;101968.06;4152284;28;20564;-71
2023/08/21 04:09:50;;;;;;;4.32;1.70;;;15.10;99.90;;;14.57;100.00;101973.00;4151207;28;20033;-71
2023/08/21 04:11:51;;;;;;;7.40;1.80;;;15.10;99.90;;;14.55;100.00;101964.34;4152473;28;20026;-71
2023/08/21 04:13:51;;;;;;;5.32;1.70;;;15.10;99.90;;;14.55;100.00;101967.84;4152161;28;20033;-71
2023/08/21 04:15:54;;;;;;;5.10;1.77;;;15.10;99.90;;;14.54;100.00;101970.66;4150915;28;20505;-71
2023/08/21 04:17:55;;;;;;;4.78;2.22;;;15.10;99.90;;;14.54;100.00;101976.81;4160720;28;20458;-71
2023/08/21 04:19:56;;;;;;;6.43;2.58;;;15.10;99.90;;;14.50;100.00;101962.16;4145989;28;20026;-71
2023/08/21 04:21:57;;;;;;;6.07;2.13;;;15.00;99.90;;;14.49;100.00;101964.94;4152110;28;20057;-71
2023/08/21 04:23:59;;;;;;;8.00;2.55;;;15.10;99.90;;;14.50;100.00;101967.47;4152538;28;20021;-71
2023/08/21 04:26:02;;;;;;;5.25;1.83;;;15.00;99.90;;;14.50;100.00;101969.28;4150937;28;20034;-71
2023/08/21 04:28:03;;;;;;;6.90;2.00;;;15.00;99.90;;;14.50;100.00;101969.28;4143220;28;20019;-71
2023/08/21 04:30:05;;;;;;;5.78;1.50;;;15.00;99.90;;;14.51;100.00;101984.25;4148729;28;20441;-71
2023/08/21 04:32:06;;;;;;;6.95;1.98;;;15.00;99.90;;;14.48;100.00;101981.88;4147439;28;20025;-71
2023/08/21 04:34:07;;;;;;;8.40;2.63;;;15.00;99.90;;;14.44;100.00;101976.03;4150954;28;20088;-71
2023/08/21 04:36:14;;;;;;;6.90;1.70;;;15.00;99.90;;;14.49;100.00;101988.84;4148964;28;20034;-71
2023/08/21 04:38:15;;;;;;;5.85;2.28;;;15.00;99.90;;;14.49;100.00;101980.88;4150715;28;20049;-71
2023/08/21 04:40:17;;;;;;;6.45;2.30;;;15.00;99.90;;;14.49;100.00;101979.06;4152076;28;20433;-71
2023/08/21 04:42:18;;;;;;;5.18;1.80;;;15.00;99.90;;;14.48;100.00;101981.88;4154948;28;20493;-71
2023/08/21 04:44:19;;;;;;;7.25;2.35;;;15.00;99.90;;;14.49;100.00;101987.03;4154063;28;20025;-71
2023/08/21 04:46:21;;;;;;;5.28;2.45;;;15.00;99.90;;;14.50;100.00;101991.38;4155008;28;20042;-71
2023/08/21 04:48:22;;;;;;;4.53;2.20;;;15.00;99.90;;;14.50;100.00;101986.06;4155122;28;20050;-71
2023/08/21 04:50:23;;;;;;;6.68;2.35;;;15.00;99.90;;;14.51;100.00;101993.03;4155340;28;20385;-71
2023/08/21 04:52:25;;;;;;;7.00;2.47;;;15.00;99.90;;;14.55;100.00;101990.91;4155058;28;20026;-71
2023/08/21 04:54:26;;;;;;;5.40;1.88;;;15.00;99.90;;;14.47;100.00;101975.72;4154754;28;20061;-71
2023/08/21 04:56:27;;;;;;;8.20;2.13;;;15.00;99.90;;;14.50;100.00;101983.41;4154088;28;20034;-71
2023/08/21 04:58:28;;;;;;;7.57;3.20;;;15.00;99.90;;;14.51;100.00;101989.56;4153754;28;20038;-71
2023/08/21 05:00:28;;;;;;;7.57;3.03;;;15.00;99.90;;;14.53;100.00;101991.06;4154773;28;20030;-71
2023/08/21 05:02:29;;;;;;;6.32;1.88;;;15.00;99.90;;;14.53;100.00;101991.06;4154935;28;20029;-71
2023/08/21 05:04:30;;;;;;;6.95;2.50;;;15.10;99.90;;;14.50;100.00;101986.06;4154874;28;20037;-71
2023/08/21 05:06:31;;;;;;;6.05;2.22;;;15.00;99.90;;;14.51;100.00;101978.94;4153643;28;20041;-71
2023/08/21 05:08:32;;;;;;;8.73;3.55;;;15.10;99.90;;;14.49;100.00;101973.75;4154669;28;20052;-71
2023/08/21 05:10:33;;;;;;;6.43;2.53;;;15.10;99.90;;;14.52;100.00;101977.91;4153689;28;20026;-71
2023/08/21 05:12:34;;;;;;;5.05;2.22;;;15.10;99.90;;;14.57;100.00;101986.28;4154343;28;20053;-71
2023/08/21 05:14:36;;;;;;;8.50;2.58;;;15.10;99.90;;;14.45;100.00;101963.59;4153399;28;20092;-71
2023/08/21 05:16:37;;;;;;;7.00;2.75;;;15.10;99.90;;;14.55;100.00;101982.94;4153495;28;20057;-71
2023/08/21 05:18:38;;;;;;;9.68;2.28;;;15.10;99.90;;;14.54;100.00;101986.59;4153490;28;20429;-71
2023/08/21 05:20:39;;;;;;;5.03;2.60;;;15.10;99.90;;;14.51;100.00;101973.63;4152911;28;20030;-71
2023/08/21 05:22:40;;;;;;;4.15;1.90;;;15.10;99.90;;;14.54;100.00;101986.59;4142760;28;20073;-71
2023/08/21 05:24:41;;;;;;;5.25;2.03;;;15.10;99.90;;;14.55;100.00;101980.28;4146353;28;20033;-71
2023/08/21 05:26:42;;;;;;;7.75;2.40;;;15.10;99.90;;;14.49;100.00;101971.09;4154546;28;20026;-71
2023/08/21 05:28:43;;;;;;;12.10;3.20;;;15.00;99.90;;;14.50;100.00;101969.28;4151237;28;20038;-71
2023/08/21 05:30:48;;;;;;;6.20;2.80;;;15.00;99.90;;;14.55;100.00;101969.66;4152852;28;20034;-71
2023/08/21 05:32:49;;;;;;;8.55;2.47;;;15.10;99.90;;;14.55;100.00;101973.16;4152855;28;20105;-71
2023/08/21 05:34:50;;;;;;;8.63;2.50;;;15.00;99.90;;;14.53;100.00;101967.16;4153562;28;20034;-71
2023/08/21 05:36:54;;;;;;;7.55;2.67;;;15.00;99.90;;;14.52;100.00;101967.31;4153214;28;20413;-71
2023/08/21 05:38:57;;;;;;;5.15;2.63;;;15.10;99.90;;;14.55;100.00;101972.31;4145093;28;20040;-71
2023/08/21 05:40:58;;;;;;;7.05;2.38;;;15.10;99.90;;;14.55;100.00;101975.81;4147602;28;20034;-71
2023/08/21 05:42:59;;;;;;;6.38;2.58;;;15.10;99.90;;;14.56;100.00;101974.81;4152813;28;20774;-71
2023/08/21 05:44:59;;;;;;;6.70;2.10;;;15.10;99.90;;;14.57;100.00;101976.50;4152822;28;20030;-73
2023/08/21 05:47:00;;;;;;;8.48;2.20;;;15.10;99.90;;;14.58;100.00;101980.81;4153897;28;20489;-71
2023/08/21 05:49:01;;;;;;;9.05;3.05;;;15.10;99.90;;;14.60;100.00;101983.34;4147797;28;20030;-72
2023/08/21 05:51:03;;;;;;;9.45;3.33;;;15.10;99.90;;;14.61;100.00;101984.97;4150369;28;20034;-72
2023/08/21 05:53:05;;;;;;;5.22;2.80;;;15.10;99.90;;;14.64;100.00;101987.34;4151440;28;20052;-72
2023/08/21 05:55:06;;;;;;;9.13;2.75;;;15.20;99.90;;;14.51;100.00;101963.00;4152632;28;20052;-72
2023/08/21 05:57:07;;;;;;;9.25;2.75;;;15.20;99.90;;;14.68;100.00;101972.78;4151199;28;20133;-73
2023/08/21 05:59:11;;;;;;;7.63;3.08;;;15.20;99.90;;;14.76;100.00;101986.13;4152222;28;20030;-72
2023/08/21 06:01:12;;;;;;;7.22;3.15;;;15.30;99.90;;;14.78;100.00;101977.00;4150962;28;20084;-73
2023/08/21 06:03:13;;;;;;;5.22;2.97;;;15.30;99.90;;;14.79;100.00;101977.84;4151229;28;20038;-72
2023/08/21 06:05:14;;;;;;;6.28;3.20;;;15.30;99.90;;;14.85;100.00;101982.53;4151381;28;20513;-72
2023/08/21 06:07:15;;;;;;;6.28;3.08;;;15.30;99.90;;;14.91;100.00;101992.56;4148865;28;20041;-72
2023/08/21 06:09:17;;;;;;;10.40;3.00;;;15.40;99.90;;;14.90;100.00;101978.44;4152453;28;20100;-72
2023/08/21 06:11:18;;;;;;;5.43;3.05;;;15.40;99.90;;;14.96;100.00;101982.31;4142382;28;20153;-72
2023/08/21 06:13:19;;;;;;;9.50;3.10;;;15.50;99.90;;;14.98;100.00;101976.84;4152724;28;20030;-72
2023/08/21 06:15:19;;;;;;;7.45;3.00;;;15.50;99.90;;;15.01;100.00;101985.34;4152432;28;20159;-72
2023/08/21 06:17:22;;;;;;;8.32;3.95;;;15.60;99.90;;;15.05;100.00;101986.72;4148998;28;20038;-72
2023/08/21 06:19:22;;;;;;;12.35;3.80;;;15.60;99.90;;;15.08;100.00;101975.78;4143133;28;20092;-72
2023/08/21 06:21:23;;;;;;;6.75;3.30;;;15.60;99.90;;;15.15;100.00;101981.28;4153751;28;20030;-72
2023/08/21 06:23:24;;;;;;;6.88;3.25;;;15.60;99.90;;;15.18;100.00;101981.81;4153755;28;20033;-72
2023/08/21 06:25:25;;;;;;;8.77;3.17;;;15.70;99.90;;;15.26;100.00;101984.50;4152067;28;20022;-72
2023/08/21 06:27:26;;;;;;;5.75;3.38;;;15.70;99.90;;;15.32;100.00;101983.06;4152723;28;20578;-72
2023/08/21 06:29:27;;;;;;;7.85;3.33;;;15.80;99.90;;;15.45;100.00;101996.75;4145053;28;20022;-72
2023/08/21 06:31:27;;;;;;;7.97;4.13;;;15.90;99.90;;;15.46;100.00;101986.00;4153488;28;20049;-72
2023/08/21 06:33:28;;;;;;;8.88;4.10;;;16.00;99.90;;;15.64;100.00;102001.06;4152168;28;20029;-72
2023/08/21 06:35:29;;;;;;;7.38;3.97;;;16.00;99.90;;;15.71;100.00;101997.59;4150447;28;20025;-72
2023/08/21 06:37:30;;;;;;;6.30;3.28;;;16.20;99.90;;;15.78;100.00;101998.66;4150782;28;20049;-72
2023/08/21 06:39:31;;;;;;;7.95;3.90;;;16.20;99.90;;;15.88;100.00;102001.19;4146297;28;20034;-72
2023/08/21 06:41:32;;;;;;;6.32;2.97;;;16.30;99.90;;;16.07;100.00;102002.78;4152136;28;20512;-72
2023/08/21 06:43:33;;;;;;;7.93;4.05;;;16.50;99.90;;;16.17;100.00;102006.94;4153424;28;20041;-72
2023/08/21 06:45:34;;;;;;;4.60;2.92;;;16.60;99.90;;;16.24;100.00;102005.31;4153189;28;20490;-72
2023/08/21 06:47:35;;;;;;;10.98;3.80;;;16.60;99.90;;;16.31;100.00;102001.00;4153183;28;20038;-72
2023/08/21 06:49:36;;;;;;;8.63;3.50;;;16.70;99.90;;;16.38;100.00;101998.50;4153237;28;20505;-72
2023/08/21 06:51:37;;;;;;;8.32;3.33;;;16.80;99.90;;;16.40;100.00;102002.69;4153253;28;20085;-72
2023/08/21 06:53:37;;;;;;;6.45;3.25;;;16.80;99.90;;;16.43;100.00;102007.69;4151951;28;20458;-72
2023/08/21 06:55:38;;;;;;;7.65;3.70;;;16.90;99.90;;;16.39;100.00;102008.19;4152113;28;20057;-72
2023/08/21 06:57:39;;;;;;;5.55;3.13;;;16.80;99.90;;;16.30;100.00;102001.16;4153080;28;20029;-72
2023/08/21 06:59:40;;;;;;;5.80;2.78;;;16.80;99.90;;;16.26;100.00;102010.47;4151953;28;20030;-72
2023/08/21 07:01:41;;;;;;;4.95;2.85;;;16.70;99.90;;;16.18;100.00;102011.28;4153117;28;20037;-72
2023/08/21 07:03:43;;;;;;;5.57;3.67;;;16.70;99.90;;;16.10;100.00;102005.91;4152713;28;20041;-72
2023/08/21 07:05:53;;;;;;;9.48;2.95;;;16.70;99.90;;;16.07;100.00;102011.56;4152003;28;20021;-72
2023/08/21 07:07:54;;;;;;;5.38;3.30;;;16.60;99.90;;;15.99;100.00;101995.56;4152536;28;20026;-72
2023/08/21 07:09:56;;;;;;;9.23;3.92;;;16.60;99.90;;;16.01;100.00;102006.88;4151874;28;20050;-72
2023/08/21 07:11:57;;;;;;;4.57;3.28;;;16.60;99.90;;;16.00;100.00;102000.75;4135421;28;20109;-72
2023/08/21 07:13:58;;;;;;;5.40;3.42;;;16.60;99.90;;;16.06;100.00;102007.25;4151756;28;20026;-72
2023/08/21 07:16:02;;;;;;;4.03;2.67;;;16.60;99.90;;;16.09;100.00;101998.94;4152826;28;20040;-72
2023/08/21 07:18:03;;;;;;;5.18;2.85;;;16.70;99.90;;;16.08;100.00;101993.78;4151777;28;20032;-72
2023/08/21 07:20:06;;;;;;;5.82;3.13;;;16.70;99.90;;;16.09;100.00;101990.97;4151818;28;20053;-72
2023/08/21 07:22:06;;;;;;;3.85;2.45;;;16.70;99.90;;;16.19;100.00;101999.63;4152752;28;20034;-72
2023/08/21 07:24:07;;;;;;;4.57;3.08;;;16.80;99.90;;;16.30;100.00;102015.31;4151099;28;20402;-72
2023/08/21 07:26:08;;;;;;;4.63;2.67;;;16.80;99.90;;;16.29;100.00;101997.66;4145139;28;20084;-72
2023/08/21 07:28:10;;;;;;;5.93;3.15;;;16.90;99.90;;;16.41;100.00;102011.50;4140692;28;20386;-72
2023/08/21 07:30:11;;;;;;;4.60;3.10;;;16.90;99.90;;;16.42;100.00;101997.22;4150109;28;20054;-72
2023/08/21 07:32:12;;;;;;;6.53;3.10;;;17.00;99.90;;;16.54;100.00;102014.56;4152878;28;20026;-72
2023/08/21 07:34:13;;;;;;;5.25;2.90;;;17.00;99.90;;;16.60;100.00;102008.59;4151599;28;20481;-72
2023/08/21 07:36:17;;;;;;;3.72;2.65;;;17.10;99.90;;;16.67;100.00;102006.06;4150371;28;20100;-72
2023/08/21 07:38:18;;;;;;;3.13;2.67;;;17.20;99.90;;;16.75;100.00;102003.44;4148357;28;20632;-72
2023/08/21 07:40:19;;;;;;;4.15;2.30;;;17.30;99.90;;;16.83;100.00;102003.44;4151704;28;20042;-72
2023/08/21 07:42:20;;;;;;;4.80;2.33;;;17.40;99.90;;;16.87;100.00;101989.63;4151678;28;20033;-72
2023/08/21 07:44:20;;;;;;;4.53;2.80;;;17.40;99.90;;;16.97;100.00;102003.59;4151408;28;20033;-72
2023/08/21 07:46:21;;;;;;;3.92;2.00;;;17.50;99.90;;;17.03;100.00;101994.94;4151264;28;20030;-72
2023/08/21 07:48:22;;;;;;;4.28;1.95;;;17.60;99.90;;;17.07;100.00;101988.28;4152499;28;20478;-72
2023/08/21 07:50:23;;;;;;;5.53;2.30;;;17.70;99.90;;;17.21;100.00;101997.41;4134358;28;20065;-72
2023/08/21 07:52:24;;;;;;;3.75;2.42;;;17.70;99.90;;;17.33;100.00;102006.75;4149094;28;20026;-72
2023/08/21 07:54:25;;;;;;;3.15;1.90;;;17.80;99.90;;;17.42;100.00;102000.38;4149133;28;20038;-72
2023/08/21 07:56:26;;;;;;;3.20;2.38;;;17.90;99.90;;;17.51;100.00;102001.19;4152345;28;20064;-71
2023/08/21 07:58:27;;;;;;;3.10;1.60;;;18.00;99.90;;;17.56;100.00;101997.03;4151399;28;20482;-72
2023/08/21 08:00:28;;;;;;;2.97;1.63;;;18.10;99.90;;;17.63;100.00;101994.53;4148639;28;20508;-72
2023/08/21 08:02:29;;;;;;;4.47;2.13;;;18.20;99.90;;;17.73;100.00;101994.34;4143452;28;20034;-72
2023/08/21 08:04:30;;;;;;;4.57;2.20;;;18.20;99.90;;;17.73;100.00;101983.66;4151306;28;20053;-72
2023/08/21 08:06:32;;;;;;;5.20;1.73;;;18.30;99.90;;;17.83;100.00;101985.09;4151296;28;20041;-72
2023/08/21 08:08:33;;;;;;;2.80;1.50;;;18.40;99.90;;;17.97;100.00;101994.25;4146771;28;20084;-72
2023/08/21 08:10:36;;;;;;;5.15;1.83;;;18.50;99.90;;;18.03;100.00;101994.38;4148186;28;20033;-72
2023/08/21 08:12:40;;;;;;;4.13;1.70;;;18.60;99.90;;;18.12;100.00;101989.84;4147190;28;20101;-72
2023/08/21 08:14:41;;;;;;;4.22;1.75;;;18.60;99.90;;;18.20;100.00;101989.78;4142538;28;20062;-72
2023/08/21 08:16:42;;;;;;;4.30;1.67;;;18.70;99.90;;;18.28;100.00;101997.75;4153622;28;20031;-72
2023/08/21 08:18:43;;;;;;;2.55;1.58;;;18.80;99.90;;;18.40;100.00;101991.00;4154293;28;20026;-72
2023/08/21 08:20:44;;;;;;;5.22;1.73;;;18.90;99.90;;;18.46;100.00;101994.78;4155698;28;20040;-72